sensor_id;sensor_type;location;lat;lon;timestamp;pressure;altitude;pressure_sealevel;temperature;humidity
9774;BME280;4926;42.670;23.316;2022-07-22T00:00:51;94591.81;;;25.09;49.99
9774;BME280;4926;42.670;23.316;2022-07-22T00:03:18;94594.56;;;25.12;49.82
9774;BME280;4926;42.670;23.316;2022-07-22T00:05:45;94590.28;;;25.11;49.71
9774;BME280;4926;42.670;23.316;2022-07-22T00:08:15;94584.03;;;25.07;49.92
9774;BME280;4926;42.670;23.316;2022-07-22T00:10:42;94597.25;;;25.05;49.96
9774;BME280;4926;42.670;23.316;2022-07-22T00:13:09;94591.63;;;24.88;50.54
9774;BME280;4926;42.670;23.316;2022-07-22T00:15:36;94598.16;;;24.76;50.97
9774;BME280;4926;42.670;23.316;2022-07-22T00:18:04;94606.41;;;24.83;50.98
9774;BME280;4926;42.670;23.316;2022-07-22T00:20:31;94601.69;;;24.80;51.25
9774;BME280;4926;42.670;23.316;2022-07-22T00:22:58;94600.72;;;24.62;51.58
9774;BME280;4926;42.670;23.316;2022-07-22T00:25:25;94606.69;;;24.38;51.32
9774;BME280;4926;42.670;23.316;2022-07-22T00:27:53;94603.53;;;24.36;51.36
9774;BME280;4926;42.670;23.316;2022-07-22T00:30:23;94609.75;;;24.33;51.34
9774;BME280;4926;42.670;23.316;2022-07-22T00:32:50;94609.13;;;24.13;51.69
9774;BME280;4926;42.670;23.316;2022-07-22T00:35:19;94616.78;;;24.04;52.10
9774;BME280;4926;42.670;23.316;2022-07-22T00:37:46;94613.69;;;24.06;52.77
9774;BME280;4926;42.670;23.316;2022-07-22T00:40:13;94617.72;;;23.89;53.42
9774;BME280;4926;42.670;23.316;2022-07-22T00:42:42;94621.34;;;23.71;54.41
9774;BME280;4926;42.670;23.316;2022-07-22T00:45:11;94624.97;;;23.52;55.37
9774;BME280;4926;42.670;23.316;2022-07-22T00:47:38;94628.81;;;23.48;55.55
9774;BME280;4926;42.670;23.316;2022-07-22T00:50:05;94633.16;;;23.30;56.58
9774;BME280;4926;42.670;23.316;2022-07-22T00:52:35;94629.94;;;23.24;57.02
9774;BME280;4926;42.670;23.316;2022-07-22T00:55:05;94625.19;;;23.17;57.35
9774;BME280;4926;42.670;23.316;2022-07-22T00:57:32;94631.47;;;22.99;57.80
9774;BME280;4926;42.670;23.316;2022-07-22T01:00:00;94634.72;;;22.85;58.34
9774;BME280;4926;42.670;23.316;2022-07-22T01:02:27;94635.28;;;22.72;58.68
9774;BME280;4926;42.670;23.316;2022-07-22T01:04:59;94640.63;;;22.68;58.83
9774;BME280;4926;42.670;23.316;2022-07-22T01:07:26;94633.28;;;22.50;58.69
9774;BME280;4926;42.670;23.316;2022-07-22T01:09:54;94628.38;;;22.36;59.09
9774;BME280;4926;42.670;23.316;2022-07-22T01:12:22;94636.06;;;22.34;59.06
9774;BME280;4926;42.670;23.316;2022-07-22T01:14:49;94635.38;;;22.37;59.21
9774;BME280;4926;42.670;23.316;2022-07-22T01:17:18;94634.22;;;22.38;59.32
9774;BME280;4926;42.670;23.316;2022-07-22T01:19:45;94641.44;;;22.31;59.66
9774;BME280;4926;42.670;23.316;2022-07-22T01:22:14;94636.94;;;22.38;59.29
9774;BME280;4926;42.670;23.316;2022-07-22T01:24:41;94648.22;;;22.40;59.13
9774;BME280;4926;42.670;23.316;2022-07-22T01:27:16;94640.88;;;22.41;58.88
9774;BME280;4926;42.670;23.316;2022-07-22T01:29:42;94645.44;;;22.37;58.86
9774;BME280;4926;42.670;23.316;2022-07-22T01:32:09;94633.72;;;22.33;59.11
9774;BME280;4926;42.670;23.316;2022-07-22T01:34:36;94635.72;;;22.16;58.95
9774;BME280;4926;42.670;23.316;2022-07-22T01:37:03;94642.66;;;22.14;58.76
9774;BME280;4926;42.670;23.316;2022-07-22T01:39:36;94636.38;;;22.10;59.23
9774;BME280;4926;42.670;23.316;2022-07-22T01:42:04;94636.38;;;22.10;59.30
9774;BME280;4926;42.670;23.316;2022-07-22T01:44:36;94642.22;;;22.12;59.73
9774;BME280;4926;42.670;23.316;2022-07-22T01:47:03;94631.81;;;22.14;59.46
9774;BME280;4926;42.670;23.316;2022-07-22T01:49:33;94634.59;;;22.17;59.75
9774;BME280;4926;42.670;23.316;2022-07-22T01:52:00;94643.38;;;22.11;60.10
9774;BME280;4926;42.670;23.316;2022-07-22T01:54:31;94642.81;;;22.21;59.67
9774;BME280;4926;42.670;23.316;2022-07-22T01:56:58;94642.94;;;22.28;59.58
9774;BME280;4926;42.670;23.316;2022-07-22T01:59:24;94643.53;;;22.18;59.97
9774;BME280;4926;42.670;23.316;2022-07-22T02:01:51;94624.69;;;22.06;59.88
9774;BME280;4926;42.670;23.316;2022-07-22T02:04:21;94637.69;;;22.16;60.25
9774;BME280;4926;42.670;23.316;2022-07-22T02:06:48;94645.66;;;22.28;60.39
9774;BME280;4926;42.670;23.316;2022-07-22T02:09:18;94646.28;;;22.41;60.19
9774;BME280;4926;42.670;23.316;2022-07-22T02:11:50;94651.88;;;22.48;59.72
9774;BME280;4926;42.670;23.316;2022-07-22T02:14:17;94648.16;;;22.56;59.48
9774;BME280;4926;42.670;23.316;2022-07-22T02:16:43;94647.56;;;22.66;59.25
9774;BME280;4926;42.670;23.316;2022-07-22T02:19:10;94645.75;;;22.73;59.10
9774;BME280;4926;42.670;23.316;2022-07-22T02:21:37;94654.03;;;22.80;58.97
9774;BME280;4926;42.670;23.316;2022-07-22T02:24:05;94656.56;;;22.92;58.59
9774;BME280;4926;42.670;23.316;2022-07-22T02:26:32;94656.63;;;22.96;58.42
9774;BME280;4926;42.670;23.316;2022-07-22T02:29:01;94659.03;;;23.01;58.22
9774;BME280;4926;42.670;23.316;2022-07-22T02:31:28;94653.66;;;23.04;58.27
9774;BME280;4926;42.670;23.316;2022-07-22T02:33:56;94654.59;;;23.12;58.20
9774;BME280;4926;42.670;23.316;2022-07-22T02:36:22;94657.66;;;23.10;58.13
9774;BME280;4926;42.670;23.316;2022-07-22T02:38:49;94659.53;;;23.06;58.46
9774;BME280;4926;42.670;23.316;2022-07-22T02:41:16;94651.81;;;23.08;58.70
9774;BME280;4926;42.670;23.316;2022-07-22T02:43:43;94653.03;;;23.11;58.60
9774;BME280;4926;42.670;23.316;2022-07-22T02:46:11;94662.97;;;23.03;58.84
9774;BME280;4926;42.670;23.316;2022-07-22T02:48:38;94644.47;;;22.86;59.42
9774;BME280;4926;42.670;23.316;2022-07-22T02:51:05;94648.84;;;22.94;59.50
9774;BME280;4926;42.670;23.316;2022-07-22T02:53:32;94655.44;;;22.93;60.00
9774;BME280;4926;42.670;23.316;2022-07-22T02:56:00;94662.34;;;22.68;60.64
9774;BME280;4926;42.670;23.316;2022-07-22T02:58:26;94654.44;;;22.60;61.03
9774;BME280;4926;42.670;23.316;2022-07-22T03:00:55;94650.34;;;22.50;61.29
9774;BME280;4926;42.670;23.316;2022-07-22T03:03:23;94653.22;;;22.57;61.76
9774;BME280;4926;42.670;23.316;2022-07-22T03:05:50;94660.75;;;22.48;62.40
9774;BME280;4926;42.670;23.316;2022-07-22T03:08:19;94659.81;;;22.56;62.32
9774;BME280;4926;42.670;23.316;2022-07-22T03:10:46;94653.41;;;22.68;62.04
9774;BME280;4926;42.670;23.316;2022-07-22T03:13:13;94650.75;;;22.71;61.74
9774;BME280;4926;42.670;23.316;2022-07-22T03:15:43;94652.53;;;22.83;61.12
9774;BME280;4926;42.670;23.316;2022-07-22T03:18:10;94658.16;;;22.93;60.83
9774;BME280;4926;42.670;23.316;2022-07-22T03:20:44;94658.56;;;22.95;60.76
9774;BME280;4926;42.670;23.316;2022-07-22T03:23:13;94656.69;;;22.99;60.80
9774;BME280;4926;42.670;23.316;2022-07-22T03:25:40;94637.88;;;22.87;60.71
9774;BME280;4926;42.670;23.316;2022-07-22T03:28:08;94661.22;;;22.92;60.83
9774;BME280;4926;42.670;23.316;2022-07-22T03:30:44;94662.00;;;22.92;60.97
9774;BME280;4926;42.670;23.316;2022-07-22T03:33:11;94655.38;;;22.90;61.12
9774;BME280;4926;42.670;23.316;2022-07-22T03:35:37;94657.06;;;22.75;61.51
9774;BME280;4926;42.670;23.316;2022-07-22T03:38:06;94654.03;;;22.80;61.55
9774;BME280;4926;42.670;23.316;2022-07-22T03:40:35;94651.75;;;22.82;60.87
9774;BME280;4926;42.670;23.316;2022-07-22T03:43:05;94654.09;;;22.84;60.90
9774;BME280;4926;42.670;23.316;2022-07-22T03:45:36;94651.63;;;22.75;60.70
9774;BME280;4926;42.670;23.316;2022-07-22T03:48:03;94670.72;;;22.60;61.03
9774;BME280;4926;42.670;23.316;2022-07-22T03:50:30;94668.56;;;22.50;61.18
9774;BME280;4926;42.670;23.316;2022-07-22T03:52:59;94668.22;;;22.51;61.26
9774;BME280;4926;42.670;23.316;2022-07-22T03:55:27;94673.50;;;22.44;61.76
9774;BME280;4926;42.670;23.316;2022-07-22T03:57:54;94681.06;;;22.35;61.87
9774;BME280;4926;42.670;23.316;2022-07-22T04:00:21;94677.06;;;22.29;62.26
9774;BME280;4926;42.670;23.316;2022-07-22T04:02:50;94681.78;;;22.32;62.33
9774;BME280;4926;42.670;23.316;2022-07-22T04:05:19;94672.63;;;22.40;62.26
9774;BME280;4926;42.670;23.316;2022-07-22T04:07:46;94682.91;;;22.31;62.41
9774;BME280;4926;42.670;23.316;2022-07-22T04:10:16;94680.78;;;22.21;62.83
9774;BME280;4926;42.670;23.316;2022-07-22T04:12:45;94681.56;;;22.22;63.00
9774;BME280;4926;42.670;23.316;2022-07-22T04:15:12;94688.25;;;22.28;62.54
9774;BME280;4926;42.670;23.316;2022-07-22T04:17:39;94676.97;;;22.26;62.90
9774;BME280;4926;42.670;23.316;2022-07-22T04:20:07;94684.50;;;22.32;62.59
9774;BME280;4926;42.670;23.316;2022-07-22T04:22:34;94679.06;;;22.32;62.45
9774;BME280;4926;42.670;23.316;2022-07-22T04:25:00;94677.25;;;22.40;62.02
9774;BME280;4926;42.670;23.316;2022-07-22T04:27:27;94672.69;;;22.44;61.95
9774;BME280;4926;42.670;23.316;2022-07-22T04:29:56;94683.94;;;22.61;61.32
9774;BME280;4926;42.670;23.316;2022-07-22T04:32:23;94688.63;;;22.64;61.01
9774;BME280;4926;42.670;23.316;2022-07-22T04:34:55;94688.63;;;22.64;60.89
9774;BME280;4926;42.670;23.316;2022-07-22T04:37:22;94693.16;;;22.57;61.35
9774;BME280;4926;42.670;23.316;2022-07-22T04:39:59;94678.69;;;22.53;61.39
9774;BME280;4926;42.670;23.316;2022-07-22T04:42:26;94694.19;;;22.71;61.40
9774;BME280;4926;42.670;23.316;2022-07-22T04:44:53;94691.31;;;22.83;61.04
9774;BME280;4926;42.670;23.316;2022-07-22T04:47:21;94690.75;;;22.93;60.78
9774;BME280;4926;42.670;23.316;2022-07-22T04:49:48;94679.44;;;22.91;60.48
9774;BME280;4926;42.670;23.316;2022-07-22T04:52:16;94697.56;;;23.06;60.16
9774;BME280;4926;42.670;23.316;2022-07-22T04:54:46;94696.53;;;23.14;60.00
9774;BME280;4926;42.670;23.316;2022-07-22T04:57:13;94700.50;;;23.20;59.22
9774;BME280;4926;42.670;23.316;2022-07-22T04:59:39;94704.09;;;23.24;58.66
9774;BME280;4926;42.670;23.316;2022-07-22T05:02:06;94697.63;;;23.33;58.52
9774;BME280;4926;42.670;23.316;2022-07-22T05:04:35;94692.22;;;23.33;58.25
9774;BME280;4926;42.670;23.316;2022-07-22T05:07:01;94699.34;;;23.41;58.07
9774;BME280;4926;42.670;23.316;2022-07-22T05:09:29;94695.47;;;23.42;57.95
9774;BME280;4926;42.670;23.316;2022-07-22T05:12:00;94699.47;;;23.48;57.53
9774;BME280;4926;42.670;23.316;2022-07-22T05:14:27;94691.09;;;23.60;56.97
9774;BME280;4926;42.670;23.316;2022-07-22T05:16:55;94697.50;;;23.74;56.52
9774;BME280;4926;42.670;23.316;2022-07-22T05:19:25;94703.44;;;23.80;56.63
9774;BME280;4926;42.670;23.316;2022-07-22T05:21:53;94707.00;;;23.84;56.45
9774;BME280;4926;42.670;23.316;2022-07-22T05:24:23;94701.97;;;23.86;56.19
9774;BME280;4926;42.670;23.316;2022-07-22T05:26:49;94698.84;;;23.84;56.07
9774;BME280;4926;42.670;23.316;2022-07-22T05:29:16;94706.25;;;23.87;56.11
9774;BME280;4926;42.670;23.316;2022-07-22T05:31:43;94706.84;;;23.99;55.32
9774;BME280;4926;42.670;23.316;2022-07-22T05:34:13;94705.03;;;24.07;55.22
9774;BME280;4926;42.670;23.316;2022-07-22T05:36:40;94708.22;;;24.12;55.48
9774;BME280;4926;42.670;23.316;2022-07-22T05:39:08;94705.94;;;24.18;55.64
9774;BME280;4926;42.670;23.316;2022-07-22T05:41:35;94705.69;;;24.30;55.25
9774;BME280;4926;42.670;23.316;2022-07-22T05:44:03;94706.97;;;24.36;54.85
9774;BME280;4926;42.670;23.316;2022-07-22T05:46:30;94703.56;;;24.46;54.90
9774;BME280;4926;42.670;23.316;2022-07-22T05:48:57;94702.56;;;24.58;54.74
9774;BME280;4926;42.670;23.316;2022-07-22T05:51:24;94706.56;;;24.67;54.58
9774;BME280;4926;42.670;23.316;2022-07-22T05:53:50;94694.94;;;24.70;53.75
9774;BME280;4926;42.670;23.316;2022-07-22T05:56:19;94690.38;;;24.78;53.36
9774;BME280;4926;42.670;23.316;2022-07-22T05:58:45;94700.16;;;24.82;53.46
9774;BME280;4926;42.670;23.316;2022-07-22T06:01:15;94698.31;;;24.93;53.47
9774;BME280;4926;42.670;23.316;2022-07-22T06:03:45;94690.28;;;25.07;53.66
9774;BME280;4926;42.670;23.316;2022-07-22T06:06:12;94703.75;;;24.93;54.15
9774;BME280;4926;42.670;23.316;2022-07-22T06:08:39;94700.16;;;24.82;54.27
9774;BME280;4926;42.670;23.316;2022-07-22T06:11:06;94704.09;;;24.88;53.99
9774;BME280;4926;42.670;23.316;2022-07-22T06:13:35;94704.66;;;25.04;53.63
9774;BME280;4926;42.670;23.316;2022-07-22T06:16:06;94696.63;;;25.18;53.30
9774;BME280;4926;42.670;23.316;2022-07-22T06:18:33;94694.78;;;25.29;52.73
9774;BME280;4926;42.670;23.316;2022-07-22T06:21:00;94697.22;;;25.38;52.91
9774;BME280;4926;42.670;23.316;2022-07-22T06:23:27;94699.69;;;25.54;52.75
9774;BME280;4926;42.670;23.316;2022-07-22T06:25:54;94695.16;;;25.72;51.76
9774;BME280;4926;42.670;23.316;2022-07-22T06:28:23;94696.75;;;25.80;51.65
9774;BME280;4926;42.670;23.316;2022-07-22T06:30:53;94700.59;;;25.68;51.86
9774;BME280;4926;42.670;23.316;2022-07-22T06:33:23;94699.78;;;25.64;51.96
9774;BME280;4926;42.670;23.316;2022-07-22T06:35:49;94693.69;;;25.85;51.76
9774;BME280;4926;42.670;23.316;2022-07-22T06:38:16;94691.03;;;25.99;51.36
9774;BME280;4926;42.670;23.316;2022-07-22T06:40:43;94699.41;;;26.23;51.04
9774;BME280;4926;42.670;23.316;2022-07-22T06:43:10;94697.91;;;26.40;50.27
9774;BME280;4926;42.670;23.316;2022-07-22T06:45:38;94694.53;;;26.64;49.84
9774;BME280;4926;42.670;23.316;2022-07-22T06:48:09;94687.19;;;26.86;48.76
9774;BME280;4926;42.670;23.316;2022-07-22T06:50:36;94686.69;;;26.59;48.82
9774;BME280;4926;42.670;23.316;2022-07-22T06:53:03;94685.97;;;26.69;48.81
9774;BME280;4926;42.670;23.316;2022-07-22T06:55:30;94684.09;;;26.94;48.69
9774;BME280;4926;42.670;23.316;2022-07-22T06:57:59;94675.56;;;27.20;47.82
9774;BME280;4926;42.670;23.316;2022-07-22T07:00:26;94674.81;;;27.41;47.31
9774;BME280;4926;42.670;23.316;2022-07-22T07:03:00;94681.44;;;27.72;46.84
9774;BME280;4926;42.670;23.316;2022-07-22T07:05:29;94673.63;;;28.02;45.82
9774;BME280;4926;42.670;23.316;2022-07-22T07:07:59;94679.44;;;28.18;46.03
9774;BME280;4926;42.670;23.316;2022-07-22T07:10:26;94677.78;;;28.45;44.69
9774;BME280;4926;42.670;23.316;2022-07-22T07:12:55;94669.06;;;28.78;44.07
9774;BME280;4926;42.670;23.316;2022-07-22T07:15:22;94668.94;;;28.99;43.68
9774;BME280;4926;42.670;23.316;2022-07-22T07:17:52;94665.75;;;29.15;43.30
9774;BME280;4926;42.670;23.316;2022-07-22T07:20:20;94670.47;;;29.14;42.81
9774;BME280;4926;42.670;23.316;2022-07-22T07:22:48;94657.69;;;29.45;42.67
9774;BME280;4926;42.670;23.316;2022-07-22T07:25:15;94665.41;;;29.60;41.90
9774;BME280;4926;42.670;23.316;2022-07-22T07:27:42;94653.53;;;29.78;41.58
9774;BME280;4926;42.670;23.316;2022-07-22T07:30:10;94651.78;;;29.94;41.02
9774;BME280;4926;42.670;23.316;2022-07-22T07:32:38;94660.41;;;29.96;41.26
9774;BME280;4926;42.670;23.316;2022-07-22T07:35:06;94652.38;;;30.16;40.74
9774;BME280;4926;42.670;23.316;2022-07-22T07:37:33;94654.69;;;30.54;41.07
9774;BME280;4926;42.670;23.316;2022-07-22T07:40:02;94658.22;;;30.55;40.12
9774;BME280;4926;42.670;23.316;2022-07-22T07:42:29;94653.16;;;30.84;40.64
9774;BME280;4926;42.670;23.316;2022-07-22T07:44:59;94646.38;;;31.18;39.50
9774;BME280;4926;42.670;23.316;2022-07-22T07:47:28;94644.69;;;31.28;39.10
9774;BME280;4926;42.670;23.316;2022-07-22T07:49:54;94642.88;;;31.44;38.89
9774;BME280;4926;42.670;23.316;2022-07-22T07:52:22;94636.34;;;31.58;38.25
9774;BME280;4926;42.670;23.316;2022-07-22T07:54:49;94639.63;;;31.49;37.93
9774;BME280;4926;42.670;23.316;2022-07-22T07:57:20;94632.53;;;31.75;37.87
9774;BME280;4926;42.670;23.316;2022-07-22T07:59:47;94645.50;;;31.51;38.00
9774;BME280;4926;42.670;23.316;2022-07-22T08:02:14;94629.97;;;31.64;37.67
9774;BME280;4926;42.670;23.316;2022-07-22T08:04:40;94626.59;;;31.77;38.12
9774;BME280;4926;42.670;23.316;2022-07-22T08:07:07;94628.44;;;32.06;37.39
9774;BME280;4926;42.670;23.316;2022-07-22T08:09:36;94624.16;;;32.25;37.54
9774;BME280;4926;42.670;23.316;2022-07-22T08:12:06;94630.50;;;32.45;35.90
9774;BME280;4926;42.670;23.316;2022-07-22T08:14:34;94619.59;;;32.57;35.74
9774;BME280;4926;42.670;23.316;2022-07-22T08:17:01;94619.09;;;32.82;36.07
9774;BME280;4926;42.670;23.316;2022-07-22T08:19:28;94609.75;;;32.76;34.89
9774;BME280;4926;42.670;23.316;2022-07-22T08:21:55;94611.56;;;33.02;35.23
9774;BME280;4926;42.670;23.316;2022-07-22T08:24:22;94609.44;;;32.90;34.80
9774;BME280;4926;42.670;23.316;2022-07-22T08:26:50;94608.66;;;33.25;34.23
9774;BME280;4926;42.670;23.316;2022-07-22T08:29:17;94606.44;;;33.68;33.35
9774;BME280;4926;42.670;23.316;2022-07-22T08:31:49;94593.50;;;33.65;32.71
9774;BME280;4926;42.670;23.316;2022-07-22T08:34:18;94606.06;;;33.99;32.58
9774;BME280;4926;42.670;23.316;2022-07-22T08:36:45;94599.03;;;34.10;32.63
9774;BME280;4926;42.670;23.316;2022-07-22T08:39:12;94588.50;;;34.05;32.41
9774;BME280;4926;42.670;23.316;2022-07-22T08:41:39;94598.88;;;34.01;31.93
9774;BME280;4926;42.670;23.316;2022-07-22T08:44:10;94598.47;;;34.03;31.86
9774;BME280;4926;42.670;23.316;2022-07-22T08:46:39;94591.34;;;34.18;32.19
9774;BME280;4926;42.670;23.316;2022-07-22T08:49:07;94590.25;;;34.28;31.63
9774;BME280;4926;42.670;23.316;2022-07-22T08:51:34;94587.47;;;34.44;31.70
9774;BME280;4926;42.670;23.316;2022-07-22T08:54:01;94583.63;;;34.66;30.42
9774;BME280;4926;42.670;23.316;2022-07-22T08:56:28;94588.72;;;34.68;30.92
9774;BME280;4926;42.670;23.316;2022-07-22T08:58:55;94583.06;;;34.59;31.02
9774;BME280;4926;42.670;23.316;2022-07-22T09:01:22;94586.88;;;33.92;31.60
9774;BME280;4926;42.670;23.316;2022-07-22T09:03:50;94594.72;;;33.48;32.34
9774;BME280;4926;42.670;23.316;2022-07-22T09:06:20;94593.78;;;33.03;32.75
9774;BME280;4926;42.670;23.316;2022-07-22T09:08:54;94595.69;;;33.06;33.46
9774;BME280;4926;42.670;23.316;2022-07-22T09:11:23;94602.88;;;33.36;33.57
9774;BME280;4926;42.670;23.316;2022-07-22T09:13:51;94600.88;;;33.84;33.00
9774;BME280;4926;42.670;23.316;2022-07-22T09:16:37;94603.53;;;34.20;32.26
9774;BME280;4926;42.670;23.316;2022-07-22T09:19:07;94594.94;;;34.31;31.53
9774;BME280;4926;42.670;23.316;2022-07-22T09:21:41;94594.22;;;34.55;31.39
9774;BME280;4926;42.670;23.316;2022-07-22T09:24:25;94590.63;;;34.83;31.28
9774;BME280;4926;42.670;23.316;2022-07-22T09:26:54;94574.84;;;34.97;30.13
9774;BME280;4926;42.670;23.316;2022-07-22T09:29:26;94579.03;;;35.01;30.70
9774;BME280;4926;42.670;23.316;2022-07-22T09:31:53;94574.97;;;34.93;30.54
9774;BME280;4926;42.670;23.316;2022-07-22T09:34:26;94570.50;;;35.33;30.93
9774;BME280;4926;42.670;23.316;2022-07-22T09:36:56;94566.72;;;35.65;30.89
9774;BME280;4926;42.670;23.316;2022-07-22T09:39:27;94563.31;;;35.48;29.61
9774;BME280;4926;42.670;23.316;2022-07-22T09:41:57;94576.53;;;35.44;29.87
9774;BME280;4926;42.670;23.316;2022-07-22T09:44:25;94569.97;;;35.26;30.13
9774;BME280;4926;42.670;23.316;2022-07-22T09:46:51;94571.41;;;35.30;30.99
9774;BME280;4926;42.670;23.316;2022-07-22T09:49:30;94564.09;;;34.86;29.64
9774;BME280;4926;42.670;23.316;2022-07-22T09:52:00;94568.41;;;35.37;29.71
9774;BME280;4926;42.670;23.316;2022-07-22T09:54:27;94547.00;;;35.38;28.48
9774;BME280;4926;42.670;23.316;2022-07-22T09:56:54;94551.91;;;35.34;29.00
9774;BME280;4926;42.670;23.316;2022-07-22T09:59:21;94562.09;;;35.49;30.35
9774;BME280;4926;42.670;23.316;2022-07-22T10:01:51;94553.81;;;35.83;30.01
9774;BME280;4926;42.670;23.316;2022-07-22T10:04:21;94548.84;;;36.13;29.70
9774;BME280;4926;42.670;23.316;2022-07-22T10:06:51;94545.16;;;36.59;28.99
9774;BME280;4926;42.670;23.316;2022-07-22T10:09:21;94541.09;;;37.03;28.90
9774;BME280;4926;42.670;23.316;2022-07-22T10:11:48;94530.28;;;36.96;27.89
9774;BME280;4926;42.670;23.316;2022-07-22T10:14:17;94529.03;;;36.66;27.95
9774;BME280;4926;42.670;23.316;2022-07-22T10:16:45;94527.91;;;36.85;27.78
9774;BME280;4926;42.670;23.316;2022-07-22T10:19:13;94527.00;;;36.88;27.93
9774;BME280;4926;42.670;23.316;2022-07-22T10:21:43;94527.63;;;36.92;27.67
9774;BME280;4926;42.670;23.316;2022-07-22T10:24:15;94527.19;;;36.94;28.02
9774;BME280;4926;42.670;23.316;2022-07-22T10:26:48;94529.84;;;36.76;27.77
9774;BME280;4926;42.670;23.316;2022-07-22T10:29:24;94517.38;;;36.80;27.70
9774;BME280;4926;42.670;23.316;2022-07-22T10:32:22;94521.31;;;36.40;27.97
9774;BME280;4926;42.670;23.316;2022-07-22T10:35:23;94517.75;;;36.61;28.01
9774;BME280;4926;42.670;23.316;2022-07-22T10:37:59;94522.66;;;36.57;27.96
9774;BME280;4926;42.670;23.316;2022-07-22T10:40:27;94516.69;;;36.37;28.14
9774;BME280;4926;42.670;23.316;2022-07-22T10:43:12;94514.31;;;36.57;28.23
9774;BME280;4926;42.670;23.316;2022-07-22T10:45:41;94517.31;;;36.93;28.22
9774;BME280;4926;42.670;23.316;2022-07-22T10:48:12;94523.81;;;36.68;28.88
9774;BME280;4926;42.670;23.316;2022-07-22T10:50:52;94508.56;;;37.13;27.48
9774;BME280;4926;42.670;23.316;2022-07-22T10:53:25;94500.19;;;37.43;26.75
9774;BME280;4926;42.670;23.316;2022-07-22T10:56:14;94504.28;;;37.21;27.46
9774;BME280;4926;42.670;23.316;2022-07-22T10:58:53;94506.38;;;37.47;27.41
9774;BME280;4926;42.670;23.316;2022-07-22T11:01:22;94496.56;;;37.73;26.84
9774;BME280;4926;42.670;23.316;2022-07-22T11:03:50;94501.88;;;37.41;27.81
9774;BME280;4926;42.670;23.316;2022-07-22T11:06:20;94496.28;;;37.23;27.70
9774;BME280;4926;42.670;23.316;2022-07-22T11:08:49;94488.44;;;37.39;27.71
9774;BME280;4926;42.670;23.316;2022-07-22T11:11:16;94501.19;;;37.19;27.91
9774;BME280;4926;42.670;23.316;2022-07-22T11:13:43;94493.44;;;37.71;27.87
9774;BME280;4926;42.670;23.316;2022-07-22T11:16:17;94489.41;;;37.54;27.31
9774;BME280;4926;42.670;23.316;2022-07-22T11:18:48;94483.56;;;37.88;27.43
9774;BME280;4926;42.670;23.316;2022-07-22T11:21:19;94483.56;;;37.97;26.33
9774;BME280;4926;42.670;23.316;2022-07-22T11:23:50;94476.19;;;37.94;26.30
9774;BME280;4926;42.670;23.316;2022-07-22T11:26:18;94478.59;;;37.65;27.17
9774;BME280;4926;42.670;23.316;2022-07-22T11:28:46;94482.28;;;37.44;27.29
9774;BME280;4926;42.670;23.316;2022-07-22T11:31:20;94476.13;;;37.67;26.66
9774;BME280;4926;42.670;23.316;2022-07-22T11:33:47;94475.69;;;37.96;26.94
9774;BME280;4926;42.670;23.316;2022-07-22T11:36:14;94484.63;;;38.45;26.74
9774;BME280;4926;42.670;23.316;2022-07-22T11:38:45;94472.78;;;37.99;26.13
9774;BME280;4926;42.670;23.316;2022-07-22T11:41:13;94471.78;;;37.39;26.64
9774;BME280;4926;42.670;23.316;2022-07-22T11:43:41;94469.47;;;36.89;26.79
9774;BME280;4926;42.670;23.316;2022-07-22T11:46:08;94484.69;;;36.02;28.15
9774;BME280;4926;42.670;23.316;2022-07-22T11:48:37;94488.41;;;36.29;27.85
9774;BME280;4926;42.670;23.316;2022-07-22T11:51:06;94476.69;;;36.77;27.17
9774;BME280;4926;42.670;23.316;2022-07-22T11:53:35;94472.75;;;36.97;26.97
9774;BME280;4926;42.670;23.316;2022-07-22T11:56:04;94472.91;;;36.93;27.17
9774;BME280;4926;42.670;23.316;2022-07-22T11:58:39;94468.16;;;37.12;27.19
9774;BME280;4926;42.670;23.316;2022-07-22T12:01:08;94470.72;;;37.64;26.58
9774;BME280;4926;42.670;23.316;2022-07-22T12:03:39;94461.81;;;37.87;26.22
9774;BME280;4926;42.670;23.316;2022-07-22T12:06:12;94459.19;;;37.74;26.31
9774;BME280;4926;42.670;23.316;2022-07-22T12:08:41;94470.25;;;38.11;27.02
9774;BME280;4926;42.670;23.316;2022-07-22T12:11:13;94458.78;;;38.54;25.79
9774;BME280;4926;42.670;23.316;2022-07-22T12:13:42;94450.09;;;38.70;25.70
9774;BME280;4926;42.670;23.316;2022-07-22T12:16:24;94452.97;;;38.25;26.11
9774;BME280;4926;42.670;23.316;2022-07-22T12:18:57;94458.22;;;37.59;26.32
9774;BME280;4926;42.670;23.316;2022-07-22T12:21:28;94458.56;;;37.79;26.98
9774;BME280;4926;42.670;23.316;2022-07-22T12:23:57;94448.53;;;37.91;26.01
9774;BME280;4926;42.670;23.316;2022-07-22T12:26:47;94448.78;;;38.11;26.15
9774;BME280;4926;42.670;23.316;2022-07-22T12:29:15;94452.22;;;38.24;26.05
9774;BME280;4926;42.670;23.316;2022-07-22T12:31:43;94446.22;;;38.67;25.87
9774;BME280;4926;42.670;23.316;2022-07-22T12:34:12;94438.44;;;39.13;25.78
9774;BME280;4926;42.670;23.316;2022-07-22T12:36:43;94439.41;;;39.57;25.02
9774;BME280;4926;42.670;23.316;2022-07-22T12:39:14;94430.63;;;39.88;24.65
9774;BME280;4926;42.670;23.316;2022-07-22T12:41:46;94428.47;;;39.68;24.40
9774;BME280;4926;42.670;23.316;2022-07-22T12:44:18;94429.25;;;39.22;25.24
9774;BME280;4926;42.670;23.316;2022-07-22T12:46:46;94421.97;;;39.24;24.88
9774;BME280;4926;42.670;23.316;2022-07-22T12:49:17;94424.03;;;38.82;24.97
9774;BME280;4926;42.670;23.316;2022-07-22T12:52:11;94428.81;;;39.14;24.59
9774;BME280;4926;42.670;23.316;2022-07-22T12:54:43;94406.97;;;39.22;24.37
9774;BME280;4926;42.670;23.316;2022-07-22T12:57:10;94420.06;;;38.65;24.18
9774;BME280;4926;42.670;23.316;2022-07-22T12:59:36;94407.38;;;38.96;24.24
9774;BME280;4926;42.670;23.316;2022-07-22T13:02:06;94418.16;;;39.36;24.17
9774;BME280;4926;42.670;23.316;2022-07-22T13:04:35;94407.41;;;39.67;24.20
9774;BME280;4926;42.670;23.316;2022-07-22T13:07:02;94413.84;;;40.12;24.00
9774;BME280;4926;42.670;23.316;2022-07-22T13:09:29;94411.06;;;39.73;24.09
9774;BME280;4926;42.670;23.316;2022-07-22T13:11:56;94407.41;;;39.67;23.84
9774;BME280;4926;42.670;23.316;2022-07-22T13:14:27;94409.44;;;39.81;24.45
9774;BME280;4926;42.670;23.316;2022-07-22T13:16:54;94401.75;;;39.76;23.70
9774;BME280;4926;42.670;23.316;2022-07-22T13:19:20;94406.34;;;39.18;23.77